sensor_id;sensor_type;location;lat;lon;timestamp;pressure;altitude;pressure_sealevel;temperature;humidity
55032;BME280;40928;51.076;7.950;2023-12-22T00:00:01;95428.41;;;3.38;100.00
55032;BME280;40928;51.076;7.950;2023-12-22T00:02:30;95449.75;;;3.36;100.00
55032;BME280;40928;51.076;7.950;2023-12-22T00:04:56;95451.81;;;3.46;100.00
55032;BME280;40928;51.076;7.950;2023-12-22T00:07:21;95443.97;;;3.51;100.00
55032;BME280;40928;51.076;7.950;2023-12-22T00:09:48;95438.75;;;3.39;100.00
55032;BME280;40928;51.076;7.950;2023-12-22T00:12:13;95435.19;;;3.33;100.00
55032;BME280;40928;51.076;7.950;2023-12-22T00:14:39;95435.53;;;3.25;100.00
55032;BME280;40928;51.076;7.950;2023-12-22T00:17:06;95432.09;;;3.25;100.00
55032;BME280;40928;51.076;7.950;2023-12-22T00:19:32;95434.41;;;3.09;100.00
55032;BME280;40928;51.076;7.950;2023-12-22T00:21:58;95436.81;;;2.99;100.00
55032;BME280;40928;51.076;7.950;2023-12-22T00:24:24;95446.44;;;3.05;100.00
55032;BME280;40928;51.076;7.950;2023-12-22T00:26:50;95445.19;;;2.96;100.00
55032;BME280;40928;51.076;7.950;2023-12-22T00:29:16;95446.44;;;2.93;100.00
55032;BME280;40928;51.076;7.950;2023-12-22T00:31:43;95450.22;;;2.85;100.00
55032;BME280;40928;51.076;7.950;2023-12-22T00:34:09;95448.63;;;2.84;100.00
55032;BME280;40928;51.076;7.950;2023-12-22T00:36:34;95458.47;;;2.77;100.00
55032;BME280;40928;51.076;7.950;2023-12-22T00:39:00;95451.59;;;2.76;100.00
55032;BME280;40928;51.076;7.950;2023-12-22T00:41:26;95454.13;;;2.71;100.00
55032;BME280;40928;51.076;7.950;2023-12-22T00:43:52;95476.47;;;2.68;100.00
55032;BME280;40928;51.076;7.950;2023-12-22T00:46:18;95473.78;;;2.56;100.00
55032;BME280;40928;51.076;7.950;2023-12-22T00:48:46;95470.47;;;2.61;100.00
55032;BME280;40928;51.076;7.950;2023-12-22T00:51:12;95485.72;;;2.59;100.00
55032;BME280;40928;51.076;7.950;2023-12-22T00:53:37;95484.81;;;2.65;100.00
55032;BME280;40928;51.076;7.950;2023-12-22T00:56:03;95494.88;;;2.56;100.00
55032;BME280;40928;51.076;7.950;2023-12-22T00:58:30;95497.75;;;2.55;100.00
55032;BME280;40928;51.076;7.950;2023-12-22T01:00:56;95500.16;;;2.56;100.00
55032;BME280;40928;51.076;7.950;2023-12-22T01:03:21;95506.88;;;2.52;100.00
55032;BME280;40928;51.076;7.950;2023-12-22T01:05:47;95501.03;;;2.50;100.00
55032;BME280;40928;51.076;7.950;2023-12-22T01:08:13;95505.53;;;2.50;100.00
55032;BME280;40928;51.076;7.950;2023-12-22T01:10:39;95492.94;;;2.52;100.00
55032;BME280;40928;51.076;7.950;2023-12-22T01:13:05;95502.78;;;2.56;100.00
55032;BME280;40928;51.076;7.950;2023-12-22T01:15:30;95489.94;;;2.60;100.00
55032;BME280;40928;51.076;7.950;2023-12-22T01:17:56;95490.78;;;2.61;100.00
55032;BME280;40928;51.076;7.950;2023-12-22T01:20:22;95481.38;;;2.65;100.00
55032;BME280;40928;51.076;7.950;2023-12-22T01:22:48;95493.50;;;2.66;100.00
55032;BME280;40928;51.076;7.950;2023-12-22T01:25:13;95486.66;;;2.65;100.00
55032;BME280;40928;51.076;7.950;2023-12-22T01:27:39;95505.66;;;2.67;100.00
55032;BME280;40928;51.076;7.950;2023-12-22T01:30:06;95508.88;;;2.69;100.00
55032;BME280;40928;51.076;7.950;2023-12-22T01:32:31;95492.63;;;2.72;100.00
55032;BME280;40928;51.076;7.950;2023-12-22T01:35:00;95517.25;;;2.78;100.00
55032;BME280;40928;51.076;7.950;2023-12-22T01:37:31;95497.22;;;2.77;100.00
55032;BME280;40928;51.076;7.950;2023-12-22T01:39:57;95513.06;;;2.88;100.00
55032;BME280;40928;51.076;7.950;2023-12-22T01:42:23;95506.50;;;2.91;100.00
55032;BME280;40928;51.076;7.950;2023-12-22T01:44:49;95507.00;;;2.88;100.00
55032;BME280;40928;51.076;7.950;2023-12-22T01:47:15;95496.53;;;2.81;100.00
55032;BME280;40928;51.076;7.950;2023-12-22T01:49:40;95490.78;;;2.84;100.00
55032;BME280;40928;51.076;7.950;2023-12-22T01:52:07;95494.00;;;2.86;100.00
55032;BME280;40928;51.076;7.950;2023-12-22T01:54:33;95510.16;;;2.90;100.00
55032;BME280;40928;51.076;7.950;2023-12-22T01:57:00;95521.75;;;2.89;100.00
55032;BME280;40928;51.076;7.950;2023-12-22T01:59:26;95499.53;;;2.85;100.00
55032;BME280;40928;51.076;7.950;2023-12-22T02:01:53;95491.84;;;2.95;100.00
55032;BME280;40928;51.076;7.950;2023-12-22T02:04:19;95500.34;;;2.97;100.00
55032;BME280;40928;51.076;7.950;2023-12-22T02:06:45;95509.84;;;2.98;100.00
55032;BME280;40928;51.076;7.950;2023-12-22T02:09:11;95525.00;;;3.03;100.00
55032;BME280;40928;51.076;7.950;2023-12-22T02:11:38;95506.97;;;3.00;100.00
55032;BME280;40928;51.076;7.950;2023-12-22T02:14:04;95503.78;;;2.86;100.00
55032;BME280;40928;51.076;7.950;2023-12-22T02:16:40;95506.88;;;2.95;100.00
55032;BME280;40928;51.076;7.950;2023-12-22T02:19:35;95514.41;;;2.79;100.00
55032;BME280;40928;51.076;7.950;2023-12-22T02:22:06;95523.66;;;2.70;100.00
55032;BME280;40928;51.076;7.950;2023-12-22T02:24:33;95533.63;;;2.56;100.00
55032;BME280;40928;51.076;7.950;2023-12-22T02:27:05;95538.75;;;2.51;100.00
55032;BME280;40928;51.076;7.950;2023-12-22T02:29:37;95542.84;;;2.47;100.00
55032;BME280;40928;51.076;7.950;2023-12-22T02:32:07;95524.00;;;2.31;100.00
55032;BME280;40928;51.076;7.950;2023-12-22T02:34:37;95542.38;;;2.19;100.00
55032;BME280;40928;51.076;7.950;2023-12-22T02:37:08;95550.88;;;2.21;100.00
55032;BME280;40928;51.076;7.950;2023-12-22T02:39:35;95555.56;;;2.19;100.00
55032;BME280;40928;51.076;7.950;2023-12-22T02:42:03;95547.72;;;2.12;100.00
55032;BME280;40928;51.076;7.950;2023-12-22T02:44:29;95557.22;;;2.02;100.00
55032;BME280;40928;51.076;7.950;2023-12-22T02:46:55;95544.41;;;2.05;100.00
55032;BME280;40928;51.076;7.950;2023-12-22T02:49:21;95542.03;;;1.97;100.00
55032;BME280;40928;51.076;7.950;2023-12-22T02:51:46;95539.06;;;1.93;100.00
55032;BME280;40928;51.076;7.950;2023-12-22T02:54:12;95537.00;;;1.95;100.00
55032;BME280;40928;51.076;7.950;2023-12-22T02:56:38;95528.75;;;1.92;100.00
55032;BME280;40928;51.076;7.950;2023-12-22T02:59:03;95524.44;;;1.97;100.00
55032;BME280;40928;51.076;7.950;2023-12-22T03:01:29;95534.16;;;1.97;100.00
55032;BME280;40928;51.076;7.950;2023-12-22T03:03:55;95541.69;;;1.93;100.00
55032;BME280;40928;51.076;7.950;2023-12-22T03:06:20;95537.59;;;1.97;100.00
55032;BME280;40928;51.076;7.950;2023-12-22T03:08:46;95539.47;;;2.09;100.00
55032;BME280;40928;51.076;7.950;2023-12-22T03:11:12;95533.56;;;1.95;100.00
55032;BME280;40928;51.076;7.950;2023-12-22T03:13:37;95544.16;;;2.07;100.00
55032;BME280;40928;51.076;7.950;2023-12-22T03:16:08;95554.25;;;2.10;100.00
55032;BME280;40928;51.076;7.950;2023-12-22T03:18:33;95564.53;;;2.00;100.00
55032;BME280;40928;51.076;7.950;2023-12-22T03:20:59;95564.72;;;1.98;100.00
55032;BME280;40928;51.076;7.950;2023-12-22T03:27:12;95534.31;;;1.83;100.00
55032;BME280;40928;51.076;7.950;2023-12-22T03:29:42;95542.94;;;1.91;100.00
55032;BME280;40928;51.076;7.950;2023-12-22T03:32:08;95546.25;;;1.86;100.00
55032;BME280;40928;51.076;7.950;2023-12-22T03:34:34;95536.94;;;1.83;100.00
55032;BME280;40928;51.076;7.950;2023-12-22T03:36:59;95547.28;;;1.85;100.00
55032;BME280;40928;51.076;7.950;2023-12-22T03:39:25;95543.16;;;1.89;100.00
55032;BME280;40928;51.076;7.950;2023-12-22T03:41:51;95532.19;;;1.92;100.00
55032;BME280;40928;51.076;7.950;2023-12-22T03:44:16;95550.19;;;1.95;100.00
55032;BME280;40928;51.076;7.950;2023-12-22T03:46:42;95536.16;;;2.02;100.00
55032;BME280;40928;51.076;7.950;2023-12-22T03:49:08;95551.94;;;2.02;100.00
55032;BME280;40928;51.076;7.950;2023-12-22T03:51:34;95546.34;;;2.10;100.00
55032;BME280;40928;51.076;7.950;2023-12-22T03:53:59;95552.38;;;2.17;100.00
55032;BME280;40928;51.076;7.950;2023-12-22T03:56:25;95561.28;;;2.16;100.00
55032;BME280;40928;51.076;7.950;2023-12-22T03:58:51;95544.47;;;2.17;100.00
55032;BME280;40928;51.076;7.950;2023-12-22T04:01:17;95538.13;;;2.18;100.00
55032;BME280;40928;51.076;7.950;2023-12-22T04:03:42;95540.78;;;2.18;100.00
55032;BME280;40928;51.076;7.950;2023-12-22T04:06:08;95548.81;;;2.23;100.00
55032;BME280;40928;51.076;7.950;2023-12-22T04:08:34;95537.03;;;2.26;100.00
55032;BME280;40928;51.076;7.950;2023-12-22T04:10:59;95550.59;;;2.30;100.00
55032;BME280;40928;51.076;7.950;2023-12-22T04:13:25;95553.22;;;2.30;100.00
55032;BME280;40928;51.076;7.950;2023-12-22T04:15:51;95540.88;;;2.42;100.00
55032;BME280;40928;51.076;7.950;2023-12-22T04:18:16;95549.81;;;2.41;100.00
55032;BME280;40928;51.076;7.950;2023-12-22T04:20:42;95550.16;;;2.44;100.00
55032;BME280;40928;51.076;7.950;2023-12-22T04:23:08;95551.53;;;2.35;100.00
55032;BME280;40928;51.076;7.950;2023-12-22T04:25:33;95556.88;;;2.28;100.00
55032;BME280;40928;51.076;7.950;2023-12-22T04:27:59;95543.78;;;2.22;100.00
55032;BME280;40928;51.076;7.950;2023-12-22T04:30:25;95537.13;;;2.19;100.00
55032;BME280;40928;51.076;7.950;2023-12-22T04:32:52;95535.50;;;2.18;100.00
55032;BME280;40928;51.076;7.950;2023-12-22T04:35:17;95529.31;;;2.12;100.00
55032;BME280;40928;51.076;7.950;2023-12-22T04:37:43;95524.78;;;2.01;100.00
55032;BME280;40928;51.076;7.950;2023-12-22T04:40:09;95532.59;;;2.08;100.00
55032;BME280;40928;51.076;7.950;2023-12-22T04:42:35;95529.00;;;2.21;100.00
55032;BME280;40928;51.076;7.950;2023-12-22T04:45:01;95547.22;;;2.22;100.00
55032;BME280;40928;51.076;7.950;2023-12-22T04:47:26;95502.44;;;2.22;100.00
55032;BME280;40928;51.076;7.950;2023-12-22T04:49:52;95507.84;;;2.27;100.00
55032;BME280;40928;51.076;7.950;2023-12-22T04:52:18;95520.00;;;2.28;100.00
55032;BME280;40928;51.076;7.950;2023-12-22T04:54:43;95526.44;;;2.33;100.00
55032;BME280;40928;51.076;7.950;2023-12-22T04:57:09;95512.69;;;2.31;100.00
55032;BME280;40928;51.076;7.950;2023-12-22T04:59:35;95529.53;;;2.41;100.00
55032;BME280;40928;51.076;7.950;2023-12-22T05:02:00;95534.16;;;2.58;100.00
55032;BME280;40928;51.076;7.950;2023-12-22T05:04:26;95521.56;;;2.60;100.00
55032;BME280;40928;51.076;7.950;2023-12-22T05:06:52;95539.81;;;2.62;100.00
55032;BME280;40928;51.076;7.950;2023-12-22T05:09:18;95535.00;;;2.58;100.00
55032;BME280;40928;51.076;7.950;2023-12-22T05:11:43;95529.13;;;2.56;100.00
55032;BME280;40928;51.076;7.950;2023-12-22T05:14:09;95526.06;;;2.59;100.00
55032;BME280;40928;51.076;7.950;2023-12-22T05:16:35;95534.09;;;2.65;100.00
55032;BME280;40928;51.076;7.950;2023-12-22T05:19:01;95547.13;;;2.59;100.00
55032;BME280;40928;51.076;7.950;2023-12-22T05:21:27;95544.28;;;2.61;100.00
55032;BME280;40928;51.076;7.950;2023-12-22T05:23:55;95556.22;;;2.64;100.00
55032;BME280;40928;51.076;7.950;2023-12-22T05:26:21;95564.06;;;2.52;100.00
55032;BME280;40928;51.076;7.950;2023-12-22T05:28:48;95567.06;;;2.55;100.00
55032;BME280;40928;51.076;7.950;2023-12-22T05:31:17;95560.41;;;2.53;100.00
55032;BME280;40928;51.076;7.950;2023-12-22T05:33:43;95561.19;;;2.53;100.00
55032;BME280;40928;51.076;7.950;2023-12-22T05:36:09;95569.25;;;2.58;100.00
55032;BME280;40928;51.076;7.950;2023-12-22T05:38:38;95577.84;;;2.66;100.00
55032;BME280;40928;51.076;7.950;2023-12-22T05:41:04;95581.16;;;2.61;100.00
55032;BME280;40928;51.076;7.950;2023-12-22T05:43:32;95574.66;;;2.64;100.00
55032;BME280;40928;51.076;7.950;2023-12-22T05:45:59;95595.06;;;2.68;100.00
55032;BME280;40928;51.076;7.950;2023-12-22T05:48:27;95607.66;;;2.66;100.00
55032;BME280;40928;51.076;7.950;2023-12-22T05:50:57;95603.19;;;2.67;100.00
55032;BME280;40928;51.076;7.950;2023-12-22T05:53:24;95619.22;;;2.65;100.00
55032;BME280;40928;51.076;7.950;2023-12-22T05:55:50;95598.59;;;2.62;100.00
55032;BME280;40928;51.076;7.950;2023-12-22T05:58:15;95594.94;;;2.63;100.00
55032;BME280;40928;51.076;7.950;2023-12-22T06:00:41;95585.31;;;2.69;100.00
55032;BME280;40928;51.076;7.950;2023-12-22T06:03:07;95599.31;;;2.69;100.00
55032;BME280;40928;51.076;7.950;2023-12-22T06:05:32;95602.97;;;2.68;100.00
55032;BME280;40928;51.076;7.950;2023-12-22T06:07:58;95605.59;;;2.68;100.00
55032;BME280;40928;51.076;7.950;2023-12-22T06:10:24;95604.94;;;2.73;100.00
55032;BME280;40928;51.076;7.950;2023-12-22T06:12:50;95624.66;;;2.70;100.00
55032;BME280;40928;51.076;7.950;2023-12-22T06:15:15;95630.72;;;2.71;100.00
55032;BME280;40928;51.076;7.950;2023-12-22T06:17:41;95629.81;;;2.77;100.00
55032;BME280;40928;51.076;7.950;2023-12-22T06:20:07;95631.88;;;2.75;100.00
55032;BME280;40928;51.076;7.950;2023-12-22T06:22:33;95609.75;;;2.76;100.00
55032;BME280;40928;51.076;7.950;2023-12-22T06:24:58;95610.13;;;2.80;100.00
55032;BME280;40928;51.076;7.950;2023-12-22T06:27:24;95623.44;;;2.85;100.00
55032;BME280;40928;51.076;7.950;2023-12-22T06:29:50;95642.47;;;2.87;100.00
55032;BME280;40928;51.076;7.950;2023-12-22T06:32:16;95649.72;;;2.92;100.00
55032;BME280;40928;51.076;7.950;2023-12-22T06:34:43;95622.91;;;2.95;100.00
55032;BME280;40928;51.076;7.950;2023-12-22T06:37:08;95631.25;;;2.92;100.00
55032;BME280;40928;51.076;7.950;2023-12-22T06:39:36;95644.88;;;2.88;100.00
55032;BME280;40928;51.076;7.950;2023-12-22T06:42:01;95637.84;;;2.82;100.00
55032;BME280;40928;51.076;7.950;2023-12-22T06:44:27;95647.97;;;2.85;100.00
55032;BME280;40928;51.076;7.950;2023-12-22T06:46:53;95656.78;;;2.79;100.00
55032;BME280;40928;51.076;7.950;2023-12-22T06:49:18;95654.00;;;2.74;100.00
55032;BME280;40928;51.076;7.950;2023-12-22T06:51:44;95655.50;;;2.82;100.00
55032;BME280;40928;51.076;7.950;2023-12-22T06:54:09;95656.63;;;2.74;100.00
55032;BME280;40928;51.076;7.950;2023-12-22T06:56:35;95656.47;;;2.69;100.00
55032;BME280;40928;51.076;7.950;2023-12-22T06:59:01;95662.19;;;2.66;100.00
55032;BME280;40928;51.076;7.950;2023-12-22T07:01:29;95673.56;;;2.66;100.00
55032;BME280;40928;51.076;7.950;2023-12-22T07:03:55;95676.97;;;2.67;100.00
55032;BME280;40928;51.076;7.950;2023-12-22T07:06:22;95673.56;;;2.66;100.00
55032;BME280;40928;51.076;7.950;2023-12-22T07:11:41;95676.63;;;2.63;100.00
55032;BME280;40928;51.076;7.950;2023-12-22T07:14:07;95673.91;;;2.70;100.00
55032;BME280;40928;51.076;7.950;2023-12-22T07:16:33;95697.63;;;2.70;100.00
55032;BME280;40928;51.076;7.950;2023-12-22T07:18:59;95687.25;;;2.75;100.00
55032;BME280;40928;51.076;7.950;2023-12-22T07:21:24;95676.03;;;2.80;100.00
55032;BME280;40928;51.076;7.950;2023-12-22T07:23:50;95677.41;;;2.82;100.00
55032;BME280;40928;51.076;7.950;2023-12-22T07:26:15;95672.03;;;2.89;100.00
55032;BME280;40928;51.076;7.950;2023-12-22T07:28:46;95672.63;;;2.91;100.00
55032;BME280;40928;51.076;7.950;2023-12-22T07:31:11;95658.06;;;2.88;100.00
55032;BME280;40928;51.076;7.950;2023-12-22T07:33:37;95659.34;;;2.98;100.00
55032;BME280;40928;51.076;7.950;2023-12-22T07:36:03;95656.72;;;2.98;100.00
55032;BME280;40928;51.076;7.950;2023-12-22T07:38:29;95656.41;;;3.06;100.00
55032;BME280;40928;51.076;7.950;2023-12-22T07:40:54;95655.25;;;3.02;100.00
55032;BME280;40928;51.076;7.950;2023-12-22T07:43:20;95663.38;;;3.00;100.00
55032;BME280;40928;51.076;7.950;2023-12-22T07:45:45;95657.44;;;3.05;100.00
55032;BME280;40928;51.076;7.950;2023-12-22T07:48:11;95644.25;;;3.05;100.00
55032;BME280;40928;51.076;7.950;2023-12-22T07:50:36;95651.81;;;3.13;100.00
55032;BME280;40928;51.076;7.950;2023-12-22T07:53:02;95650.69;;;3.21;100.00
55032;BME280;40928;51.076;7.950;2023-12-22T07:55:29;95655.41;;;3.19;100.00
55032;BME280;40928;51.076;7.950;2023-12-22T07:57:54;95648.97;;;3.15;100.00
55032;BME280;40928;51.076;7.950;2023-12-22T08:00:20;95662.44;;;3.37;100.00
55032;BME280;40928;51.076;7.950;2023-12-22T08:02:46;95661.63;;;3.37;100.00
55032;BME280;40928;51.076;7.950;2023-12-22T08:05:13;95634.91;;;3.33;100.00
55032;BME280;40928;51.076;7.950;2023-12-22T08:07:38;95632.25;;;3.33;100.00
55032;BME280;40928;51.076;7.950;2023-12-22T08:10:04;95643.06;;;3.31;100.00
55032;BME280;40928;51.076;7.950;2023-12-22T08:12:29;95643.19;;;3.48;100.00
55032;BME280;40928;51.076;7.950;2023-12-22T08:14:58;95637.56;;;3.45;100.00
55032;BME280;40928;51.076;7.950;2023-12-22T08:17:23;95620.81;;;3.51;100.00
55032;BME280;40928;51.076;7.950;2023-12-22T08:19:49;95633.69;;;3.59;100.00
55032;BME280;40928;51.076;7.950;2023-12-22T08:22:15;95642.88;;;3.57;100.00
55032;BME280;40928;51.076;7.950;2023-12-22T08:24:40;95649.97;;;3.56;100.00
55032;BME280;40928;51.076;7.950;2023-12-22T08:27:07;95648.81;;;3.64;100.00
55032;BME280;40928;51.076;7.950;2023-12-22T08:29:33;95648.94;;;3.69;100.00
55032;BME280;40928;51.076;7.950;2023-12-22T08:31:58;95654.69;;;3.66;100.00
55032;BME280;40928;51.076;7.950;2023-12-22T08:34:26;95660.75;;;3.66;100.00
55032;BME280;40928;51.076;7.950;2023-12-22T08:43:15;95640.69;;;3.65;100.00
55032;BME280;40928;51.076;7.950;2023-12-22T08:45:41;95644.13;;;3.78;100.00
55032;BME280;40928;51.076;7.950;2023-12-22T08:48:06;95623.94;;;3.84;100.00
55032;BME280;40928;51.076;7.950;2023-12-22T08:50:34;95628.88;;;3.80;100.00
55032;BME280;40928;51.076;7.950;2023-12-22T08:52:59;95632.06;;;3.94;100.00
55032;BME280;40928;51.076;7.950;2023-12-22T08:55:25;95634.50;;;3.95;100.00
55032;BME280;40928;51.076;7.950;2023-12-22T08:57:51;95640.31;;;3.97;100.00
55032;BME280;40928;51.076;7.950;2023-12-22T09:00:16;95647.00;;;4.12;100.00
55032;BME280;40928;51.076;7.950;2023-12-22T09:02:42;95644.78;;;4.21;100.00
55032;BME280;40928;51.076;7.950;2023-12-22T09:05:08;95642.72;;;4.23;100.00
55032;BME280;40928;51.076;7.950;2023-12-22T09:07:33;95629.16;;;4.31;100.00
55032;BME280;40928;51.076;7.950;2023-12-22T09:09:59;95641.91;;;4.34;100.00
55032;BME280;40928;51.076;7.950;2023-12-22T09:12:24;95640.19;;;4.28;100.00
55032;BME280;40928;51.076;7.950;2023-12-22T09:14:50;95644.75;;;4.33;100.00
55032;BME280;40928;51.076;7.950;2023-12-22T09:17:15;95645.91;;;4.37;100.00
55032;BME280;40928;51.076;7.950;2023-12-22T09:19:41;95651.84;;;4.44;100.00
55032;BME280;40928;51.076;7.950;2023-12-22T09:22:08;95659.25;;;4.42;100.00
55032;BME280;40928;51.076;7.950;2023-12-22T09:24:34;95654.16;;;4.40;100.00
55032;BME280;40928;51.076;7.950;2023-12-22T09:26:59;95637.97;;;4.37;100.00
55032;BME280;40928;51.076;7.950;2023-12-22T09:29:31;95661.06;;;4.41;100.00
55032;BME280;40928;51.076;7.950;2023-12-22T09:32:01;95661.31;;;4.40;100.00
55032;BME280;40928;51.076;7.950;2023-12-22T09:34:26;95646.34;;;4.46;100.00
55032;BME280;40928;51.076;7.950;2023-12-22T09:36:55;95651.97;;;4.37;100.00
55032;BME280;40928;51.076;7.950;2023-12-22T09:39:21;95654.16;;;4.40;100.00
55032;BME280;40928;51.076;7.950;2023-12-22T09:41:50;95657.84;;;4.39;100.00
55032;BME280;40928;51.076;7.950;2023-12-22T09:44:19;95658.88;;;4.38;100.00
55032;BME280;40928;51.076;7.950;2023-12-22T09:46:46;95635.44;;;4.42;100.00
55032;BME280;40928;51.076;7.950;2023-12-22T09:49:14;95638.88;;;4.42;100.00
55032;BME280;40928;51.076;7.950;2023-12-22T09:51:40;95629.13;;;4.43;100.00
55032;BME280;40928;51.076;7.950;2023-12-22T09:54:08;95628.41;;;4.48;100.00
55032;BME280;40928;51.076;7.950;2023-12-22T09:56:36;95634.97;;;4.45;100.00
55032;BME280;40928;51.076;7.950;2023-12-22T09:59:09;95618.56;;;4.43;100.00
55032;BME280;40928;51.076;7.950;2023-12-22T10:01:37;95609.09;;;4.47;100.00
55032;BME280;40928;51.076;7.950;2023-12-22T10:04:03;95605.88;;;4.45;100.00
55032;BME280;40928;51.076;7.950;2023-12-22T10:06:28;95609.81;;;4.42;100.00
55032;BME280;40928;51.076;7.950;2023-12-22T10:08:54;95598.59;;;4.35;100.00
55032;BME280;40928;51.076;7.950;2023-12-22T10:11:20;95592.47;;;4.35;100.00
55032;BME280;40928;51.076;7.950;2023-12-22T10:13:48;95588.47;;;4.32;100.00
55032;BME280;40928;51.076;7.950;2023-12-22T10:16:15;95581.59;;;4.31;100.00
55032;BME280;40928;51.076;7.950;2023-12-22T10:18:41;95566.50;;;4.32;100.00
55032;BME280;40928;51.076;7.950;2023-12-22T10:21:07;95572.16;;;4.35;100.00
55032;BME280;40928;51.076;7.950;2023-12-22T10:23:34;95566.31;;;4.33;100.00
55032;BME280;40928;51.076;7.950;2023-12-22T10:26:57;95558.13;;;4.35;100.00
55032;BME280;40928;51.076;7.950;2023-12-22T10:29:40;95551.81;;;4.36;100.00
55032;BME280;40928;51.076;7.950;2023-12-22T10:32:07;95551.91;;;4.41;100.00
55032;BME280;40928;51.076;7.950;2023-12-22T10:34:36;95535.81;;;4.42;100.00
55032;BME280;40928;51.076;7.950;2023-12-22T10:37:04;95562.41;;;4.53;100.00
55032;BME280;40928;51.076;7.950;2023-12-22T10:39:35;95558.84;;;4.59;100.00
55032;BME280;40928;51.076;7.950;2023-12-22T10:42:05;95567.81;;;4.58;100.00
55032;BME280;40928;51.076;7.950;2023-12-22T10:44:31;95550.50;;;4.67;100.00
55032;BME280;40928;51.076;7.950;2023-12-22T10:46:59;95550.50;;;4.67;100.00
55032;BME280;40928;51.076;7.950;2023-12-22T10:49:28;95546.28;;;4.66;100.00
55032;BME280;40928;51.076;7.950;2023-12-22T10:51:56;95546.75;;;4.63;100.00
55032;BME280;40928;51.076;7.950;2023-12-22T10:54:26;95526.63;;;4.62;100.00
55032;BME280;40928;51.076;7.950;2023-12-22T10:56:58;95523.03;;;4.68;100.00
55032;BME280;40928;51.076;7.950;2023-12-22T10:59:31;95524.16;;;4.72;100.00
55032;BME280;40928;51.076;7.950;2023-12-22T11:01:59;95518.56;;;4.86;100.00
55032;BME280;40928;51.076;7.950;2023-12-22T11:04:30;95519.78;;;4.95;100.00
55032;BME280;40928;51.076;7.950;2023-12-22T11:07:03;95526.69;;;4.96;100.00
55032;BME280;40928;51.076;7.950;2023-12-22T11:09:31;95521.41;;;4.96;100.00
55032;BME280;40928;51.076;7.950;2023-12-22T11:11:58;95521.41;;;4.96;100.00
55032;BME280;40928;51.076;7.950;2023-12-22T11:14:26;95529.41;;;5.01;100.00
55032;BME280;40928;51.076;7.950;2023-12-22T11:16:53;95521.69;;;5.17;100.00
55032;BME280;40928;51.076;7.950;2023-12-22T11:19:20;95512.81;;;5.23;100.00
55032;BME280;40928;51.076;7.950;2023-12-22T11:21:47;95521.06;;;5.27;100.00
55032;BME280;40928;51.076;7.950;2023-12-22T11:24:15;95526.81;;;5.24;100.00
55032;BME280;40928;51.076;7.950;2023-12-22T11:26:42;95540.63;;;5.26;100.00
55032;BME280;40928;51.076;7.950;2023-12-22T11:29:09;95535.28;;;5.21;100.00
55032;BME280;40928;51.076;7.950;2023-12-22T11:31:36;95528.38;;;5.20;100.00
55032;BME280;40928;51.076;7.950;2023-12-22T11:34:07;95540.38;;;5.10;100.00
55032;BME280;40928;51.076;7.950;2023-12-22T11:36:34;95544.31;;;5.08;100.00
55032;BME280;40928;51.076;7.950;2023-12-22T11:39:00;95550.66;;;5.07;100.00
55032;BME280;40928;51.076;7.950;2023-12-22T11:41:29;95555.84;;;5.01;100.00
55032;BME280;40928;51.076;7.950;2023-12-22T11:43:57;95544.38;;;4.96;100.00
55032;BME280;40928;51.076;7.950;2023-12-22T11:46:23;95539.16;;;4.84;100.00
55032;BME280;40928;51.076;7.950;2023-12-22T11:48:50;95535.72;;;4.83;100.00
55032;BME280;40928;51.076;7.950;2023-12-22T11:51:17;95548.28;;;4.76;100.00
55032;BME280;40928;51.076;7.950;2023-12-22T11:53:43;95541.53;;;4.68;100.00
55032;BME280;40928;51.076;7.950;2023-12-22T11:56:10;95526.63;;;4.62;100.00
55032;BME280;40928;51.076;7.950;2023-12-22T12:01:14;95544.69;;;4.65;100.00
55032;BME280;40928;51.076;7.950;2023-12-22T12:03:49;95526.88;;;4.61;100.00
55032;BME280;40928;51.076;7.950;2023-12-22T12:06:16;95524.00;;;4.62;100.00
55032;BME280;40928;51.076;7.950;2023-12-22T12:08:43;95526.06;;;4.60;100.00
55032;BME280;40928;51.076;7.950;2023-12-22T12:11:09;95529.28;;;4.62;100.00
55032;BME280;40928;51.076;7.950;2023-12-22T12:13:41;95530.66;;;4.65;100.00
55032;BME280;40928;51.076;7.950;2023-12-22T12:16:07;95534.56;;;4.62;100.00
55032;BME280;40928;51.076;7.950;2023-12-22T12:18:33;95525.44;;;4.70;100.00
55032;BME280;40928;51.076;7.950;2023-12-22T12:21:00;95523.84;;;4.69;100.00
55032;BME280;40928;51.076;7.950;2023-12-22T12:23:29;95521.53;;;4.72;100.00
55032;BME280;40928;51.076;7.950;2023-12-22T12:25:55;95519.34;;;4.69;100.00
55032;BME280;40928;51.076;7.950;2023-12-22T12:28:33;95503.47;;;4.69;100.00
55032;BME280;40928;51.076;7.950;2023-12-22T12:31:00;95503.25;;;4.71;100.00
55032;BME280;40928;51.076;7.950;2023-12-22T12:33:27;95512.88;;;4.77;100.00
55032;BME280;40928;51.076;7.950;2023-12-22T12:35:54;95510.56;;;4.81;100.00
55032;BME280;40928;51.076;7.950;2023-12-22T12:38:22;95507.25;;;4.91;100.00
55032;BME280;40928;51.076;7.950;2023-12-22T12:40:50;95495.47;;;4.98;100.00
55032;BME280;40928;51.076;7.950;2023-12-22T12:43:17;95505.28;;;4.98;100.00
55032;BME280;40928;51.076;7.950;2023-12-22T12:45:44;95474.88;;;5.00;100.00
55032;BME280;40928;51.076;7.950;2023-12-22T12:48:33;95491.31;;;5.02;100.00
55032;BME280;40928;51.076;7.950;2023-12-22T12:51:06;95493.22;;;5.07;100.00
55032;BME280;40928;51.076;7.950;2023-12-22T12:53:32;95495.09;;;5.07;100.00
55032;BME280;40928;51.076;7.950;2023-12-22T12:56:01;95477.69;;;5.11;100.00
55032;BME280;40928;51.076;7.950;2023-12-22T12:58:32;95472.41;;;5.11;100.00
55032;BME280;40928;51.076;7.950;2023-12-22T13:01:09;95453.16;;;5.15;100.00
55032;BME280;40928;51.076;7.950;2023-12-22T13:06:19;95452.63;;;5.36;100.00
55032;BME280;40928;51.076;7.950;2023-12-22T13:08:50;95455.78;;;5.55;100.00
55032;BME280;40928;51.076;7.950;2023-12-22T13:11:23;95491.03;;;5.77;100.00
55032;BME280;40928;51.076;7.950;2023-12-22T13:13:50;95506.25;;;5.87;100.00
55032;BME280;40928;51.076;7.950;2023-12-22T13:16:19;95487.16;;;5.85;100.00